createdAt,value
2018-08-18T00:00:49.254Z,984.5
2018-08-18T00:01:50.821Z,984.5
2018-08-18T00:02:52.039Z,984.5
2018-08-18T00:03:53.293Z,984.6
2018-08-18T00:04:54.513Z,984.6
2018-08-18T00:05:55.821Z,984.6
2018-08-18T00:06:57.103Z,984.6
2018-08-18T00:07:58.340Z,984.6
2018-08-18T00:08:59.578Z,984.6
2018-08-18T00:10:00.845Z,984.7
2018-08-18T00:11:02.286Z,984.7
2018-08-18T00:12:03.505Z,984.7
2018-08-18T00:13:04.754Z,984.6
2018-08-18T00:14:06.036Z,984.7
2018-08-18T00:15:07.314Z,984.7
2018-08-18T00:16:08.598Z,984.7
2018-08-18T00:17:09.826Z,984.7
2018-08-18T00:18:13.832Z,984.6
2018-08-18T00:19:15.047Z,984.7
2018-08-18T00:20:16.299Z,984.7
2018-08-18T00:21:17.560Z,984.7
2018-08-18T00:22:18.803Z,984.7
2018-08-18T00:23:22.967Z,984.7
2018-08-18T00:24:24.226Z,984.8
2018-08-18T00:25:25.449Z,984.8
2018-08-18T00:26:26.754Z,984.8
2018-08-18T00:27:27.982Z,984.8
2018-08-18T00:28:29.227Z,984.8
2018-08-18T00:29:30.462Z,984.8
2018-08-18T00:30:31.680Z,984.8
2018-08-18T00:31:32.969Z,984.8
2018-08-18T00:32:34.191Z,984.8
2018-08-18T00:33:35.637Z,984.7
2018-08-18T00:34:36.898Z,984.8
2018-08-18T00:35:38.119Z,984.8
2018-08-18T00:36:39.625Z,984.8
2018-08-18T00:37:40.881Z,984.8
2018-08-18T00:38:42.155Z,984.8
2018-08-18T00:39:43.828Z,984.7
2018-08-18T00:40:45.076Z,984.8
2018-08-18T00:41:46.354Z,984.8
2018-08-18T00:42:47.667Z,984.8
2018-08-18T00:43:48.889Z,984.8
2018-08-18T00:44:50.115Z,984.8
2018-08-18T00:45:51.597Z,984.8
2018-08-18T00:46:53.075Z,984.9
2018-08-18T00:47:54.321Z,984.9
2018-08-18T00:48:55.862Z,984.9
2018-08-18T00:49:57.111Z,984.9
2018-08-18T00:50:58.342Z,984.9
2018-08-18T00:51:59.622Z,985
2018-08-18T00:53:03.069Z,985
2018-08-18T00:54:04.322Z,984.9
2018-08-18T00:55:05.565Z,985
2018-08-18T00:56:06.822Z,985
2018-08-18T00:57:08.108Z,985
2018-08-18T00:58:10.210Z,985
2018-08-18T00:59:11.482Z,985
2018-08-18T01:00:12.698Z,985
2018-08-18T01:01:13.923Z,985
2018-08-18T01:02:15.258Z,984.9
2018-08-18T01:03:17.791Z,985
2018-08-18T01:04:19.024Z,985
2018-08-18T01:05:20.268Z,985.1
2018-08-18T01:06:21.482Z,985.1
2018-08-18T01:07:22.933Z,985
2018-08-18T01:08:24.286Z,985
2018-08-18T01:09:25.525Z,985
2018-08-18T01:10:29.395Z,985.1
2018-08-18T01:11:30.686Z,985.1
2018-08-18T01:12:32.034Z,985.1
2018-08-18T01:13:34.389Z,985.1
2018-08-18T01:14:37.508Z,985.1
2018-08-18T01:15:38.822Z,985.1
2018-08-18T01:16:39.970Z,985.1
2018-08-18T01:17:41.226Z,985.1
2018-08-18T01:18:42.460Z,985.1
2018-08-18T01:19:45.586Z,985.1
2018-08-18T01:20:46.818Z,985.1
2018-08-18T01:21:48.047Z,985
2018-08-18T01:22:49.334Z,985.1
2018-08-18T01:23:50.591Z,985.1
2018-08-18T01:24:51.849Z,985.1
2018-08-18T01:25:53.080Z,985.1
2018-08-18T01:26:54.349Z,985.1
2018-08-18T01:27:55.573Z,985.1
2018-08-18T01:28:56.806Z,985.1
2018-08-18T01:29:58.028Z,985
2018-08-18T01:30:59.315Z,985
2018-08-18T01:32:00.594Z,985.2
2018-08-18T01:33:01.841Z,985.2
2018-08-18T01:34:03.046Z,985.1
2018-08-18T01:35:04.343Z,985.1
2018-08-18T01:36:05.596Z,985.1
2018-08-18T01:37:07.174Z,985.2
2018-08-18T01:38:09.054Z,985.1
2018-08-18T01:39:10.361Z,985.2
2018-08-18T01:40:11.602Z,985.2
2018-08-18T01:41:12.799Z,985.2
2018-08-18T01:42:14.011Z,985.2
2018-08-18T01:43:15.269Z,985.2
2018-08-18T01:44:16.474Z,985.2
2018-08-18T01:45:17.774Z,985.3
2018-08-18T01:46:18.973Z,985.3
2018-08-18T01:47:20.193Z,985.1
2018-08-18T01:48:21.477Z,985.3
2018-08-18T01:49:22.703Z,985.4
2018-08-18T01:50:23.977Z,985.4
2018-08-18T01:51:25.213Z,985.3
2018-08-18T01:52:26.438Z,985.4
2018-08-18T01:53:27.800Z,985.3
2018-08-18T01:54:29.045Z,985.3
2018-08-18T01:55:30.249Z,985.2
2018-08-18T01:56:31.481Z,985.3
2018-08-18T01:57:33.210Z,985.3
2018-08-18T01:58:34.526Z,985.3
2018-08-18T01:59:35.760Z,985.3
2018-08-18T02:00:37.020Z,985.3
2018-08-18T02:01:38.237Z,985.2
2018-08-18T02:02:39.503Z,985.3
2018-08-18T02:03:41.023Z,985.3
2018-08-18T02:04:42.244Z,985.3
2018-08-18T02:05:43.510Z,985.3
2018-08-18T02:06:44.774Z,985.3
2018-08-18T02:07:46.770Z,985.3
2018-08-18T02:08:48.306Z,985.3
2018-08-18T02:09:49.547Z,985.3
2018-08-18T02:10:50.779Z,985.3
2018-08-18T02:11:52.014Z,985.3
2018-08-18T02:12:53.248Z,985.3
2018-08-18T02:13:54.780Z,985.3
2018-08-18T02:14:56.013Z,985.3
2018-08-18T02:15:57.315Z,985.3
2018-08-18T02:16:58.633Z,985.2
2018-08-18T02:17:59.865Z,985.2
2018-08-18T02:19:01.153Z,985.2
2018-08-18T02:20:02.427Z,985.2
2018-08-18T02:21:03.581Z,985.2
2018-08-18T02:22:04.829Z,985.2
2018-08-18T02:23:06.122Z,985.2
2018-08-18T02:24:07.870Z,985.2
2018-08-18T02:25:09.098Z,985.2
2018-08-18T02:26:10.327Z,985.3
2018-08-18T02:27:11.578Z,984.9
2018-08-18T02:28:12.788Z,985.2
2018-08-18T02:29:14.073Z,985.3
2018-08-18T02:30:15.285Z,985.2
2018-08-18T02:31:16.502Z,985.2
2018-08-18T02:32:17.823Z,985.2
2018-08-18T02:33:19.098Z,985.2
2018-08-18T02:34:20.714Z,985.2
2018-08-18T02:35:21.946Z,985.2
2018-08-18T02:36:23.182Z,985.2
2018-08-18T02:37:24.630Z,985
2018-08-18T02:38:25.862Z,985.2
2018-08-18T02:39:27.132Z,985.2
2018-08-18T02:40:28.390Z,985.1
2018-08-18T02:41:29.623Z,985.2
2018-08-18T02:42:30.839Z,985.2
2018-08-18T02:43:32.039Z,985.2
2018-08-18T02:44:33.318Z,985.2
2018-08-18T02:45:34.525Z,985.2
2018-08-18T02:46:35.744Z,985
2018-08-18T02:47:38.742Z,985.1
2018-08-18T02:48:39.969Z,985.2
2018-08-18T02:49:41.215Z,985.3
2018-08-18T02:50:42.439Z,985.2
2018-08-18T02:51:43.661Z,985.2
2018-08-18T02:52:44.870Z,985.2
2018-08-18T02:53:46.093Z,985.1
2018-08-18T02:54:47.554Z,985.2
2018-08-18T02:55:48.826Z,985.2
2018-08-18T02:56:50.080Z,985.2
2018-08-18T02:57:51.291Z,985.1
2018-08-18T02:58:52.513Z,985.2
2018-08-18T02:59:53.793Z,985.1
2018-08-18T03:00:55.054Z,985.2
2018-08-18T03:01:56.293Z,985.2
2018-08-18T03:02:57.530Z,985.2
2018-08-18T03:03:58.765Z,985.2
2018-08-18T03:05:00.020Z,985.2
2018-08-18T03:06:01.283Z,985.2
2018-08-18T03:07:02.496Z,985.2
2018-08-18T03:08:04.106Z,985.2
2018-08-18T03:09:05.351Z,985.2
2018-08-18T03:10:06.883Z,985.2
2018-08-18T03:11:08.152Z,985.2
2018-08-18T03:12:09.375Z,985.2
2018-08-18T03:13:10.610Z,985.2
2018-08-18T03:14:11.838Z,985.2
2018-08-18T03:15:13.108Z,985.2
2018-08-18T03:16:14.352Z,985.2
2018-08-18T03:17:15.574Z,985.2
2018-08-18T03:18:16.834Z,985.2
2018-08-18T03:19:18.140Z,985.2
2018-08-18T03:20:19.402Z,985.2
2018-08-18T03:21:20.640Z,985.2
2018-08-18T03:22:21.884Z,985.2
2018-08-18T03:23:23.113Z,985.2
2018-08-18T03:24:24.599Z,985.2
2018-08-18T03:25:25.890Z,985.2
2018-08-18T03:26:27.622Z,985.2
2018-08-18T03:27:28.914Z,985.2
2018-08-18T03:28:30.144Z,985.2
2018-08-18T03:29:31.359Z,985.3
2018-08-18T03:30:32.631Z,985.2
2018-08-18T03:31:33.850Z,985.2
2018-08-18T03:32:35.127Z,985.2
2018-08-18T03:33:36.365Z,985.2
2018-08-18T03:34:38.849Z,985.2
2018-08-18T03:35:40.187Z,985.2
2018-08-18T03:36:41.433Z,985.2
2018-08-18T03:37:42.652Z,985.2
2018-08-18T03:38:43.881Z,985.2
2018-08-18T03:39:45.138Z,985.2
2018-08-18T03:40:46.676Z,985.3
2018-08-18T03:41:47.914Z,985.3
2018-08-18T03:42:49.156Z,985.2
2018-08-18T03:43:50.394Z,985.3
2018-08-18T03:44:51.636Z,985.3
2018-08-18T03:45:52.885Z,985.3
2018-08-18T03:46:54.153Z,985.3
2018-08-18T03:47:55.414Z,985.3
2018-08-18T03:48:56.649Z,985.3
2018-08-18T03:49:57.941Z,985.3
2018-08-18T03:50:59.266Z,985.3
2018-08-18T03:52:00.493Z,985.4
2018-08-18T03:53:01.817Z,985.4
2018-08-18T03:54:03.040Z,985.4
2018-08-18T03:55:04.269Z,985.4
2018-08-18T03:56:05.667Z,985.4
2018-08-18T03:57:06.995Z,985.4
2018-08-18T03:58:08.254Z,985.4
2018-08-18T03:59:09.758Z,985.3
2018-08-18T04:00:11.002Z,985.4
2018-08-18T04:01:12.299Z,985.4
2018-08-18T04:02:13.597Z,985.4
2018-08-18T04:03:14.962Z,985.4
2018-08-18T04:04:16.163Z,985.4
2018-08-18T04:05:17.402Z,985.3
2018-08-18T04:06:18.741Z,985.4
2018-08-18T04:07:19.991Z,985.3
2018-08-18T04:08:21.223Z,985.4
2018-08-18T04:09:22.501Z,985.4
2018-08-18T04:10:23.638Z,985.5
2018-08-18T04:11:24.939Z,985.5
2018-08-18T04:12:26.165Z,985.5
2018-08-18T04:13:27.426Z,985.5
2018-08-18T04:14:28.906Z,985.5
2018-08-18T04:15:30.178Z,985.5
2018-08-18T04:16:31.451Z,985.5
2018-08-18T04:17:32.756Z,985.5
2018-08-18T04:18:33.997Z,985.5
2018-08-18T04:19:35.214Z,985.6
2018-08-18T04:20:36.438Z,985.5
2018-08-18T04:21:37.695Z,985.6
2018-08-18T04:22:38.957Z,985.6
2018-08-18T04:23:40.217Z,985.6
2018-08-18T04:24:41.439Z,985.6
2018-08-18T04:25:42.657Z,985.7
2018-08-18T04:26:43.963Z,985.6
2018-08-18T04:27:45.216Z,985.6
2018-08-18T04:28:46.442Z,985.6
2018-08-18T04:29:47.678Z,985.7
2018-08-18T04:30:48.932Z,985.7
2018-08-18T04:31:50.200Z,985.7
2018-08-18T04:32:51.417Z,985.6
2018-08-18T04:33:52.665Z,985.7
2018-08-18T04:34:53.871Z,985.7
2018-08-18T04:35:55.130Z,985.7
2018-08-18T04:36:56.418Z,985.7
2018-08-18T04:37:57.951Z,985.7
2018-08-18T04:38:59.259Z,985.7
2018-08-18T04:40:00.746Z,985.7
2018-08-18T04:41:02.177Z,985.6
2018-08-18T04:42:03.481Z,985.7
2018-08-18T04:43:04.724Z,985.7
2018-08-18T04:44:06.007Z,985.7
2018-08-18T04:45:07.257Z,985.7
2018-08-18T04:46:08.617Z,985.6
2018-08-18T04:47:10.198Z,985.6
2018-08-18T04:48:11.442Z,985.6
2018-08-18T04:49:12.720Z,985.7
2018-08-18T04:50:13.959Z,985.6
2018-08-18T04:51:15.214Z,985.6
2018-08-18T04:52:16.514Z,985.6
2018-08-18T04:53:17.726Z,985.7
2018-08-18T04:54:20.317Z,985.5
2018-08-18T04:55:22.917Z,985.7
2018-08-18T04:56:24.172Z,985.6
2018-08-18T04:57:25.611Z,985.7
2018-08-18T04:58:29.335Z,985.7
2018-08-18T04:59:32.290Z,985.7
2018-08-18T05:00:33.534Z,985.8
2018-08-18T05:01:37.078Z,985.8
2018-08-18T05:02:38.322Z,985.8
2018-08-18T05:03:39.585Z,985.8
2018-08-18T05:04:40.859Z,985.8
2018-08-18T05:05:44.943Z,985.9
2018-08-18T05:06:46.159Z,985.9
2018-08-18T05:07:50.475Z,985.7
2018-08-18T05:08:51.742Z,985.9
2018-08-18T05:09:52.911Z,985.9
2018-08-18T05:10:54.180Z,985.9
2018-08-18T05:11:55.472Z,985.9
2018-08-18T05:12:56.977Z,986
2018-08-18T05:13:58.238Z,985.9
2018-08-18T05:14:59.497Z,985.9
2018-08-18T05:16:00.769Z,986
2018-08-18T05:17:04.343Z,985.9
2018-08-18T05:18:05.647Z,986
2018-08-18T05:19:06.931Z,986
2018-08-18T05:20:08.347Z,985.9
2018-08-18T05:21:09.677Z,986
2018-08-18T05:22:10.957Z,985.9
2018-08-18T05:23:12.278Z,986
2018-08-18T05:24:13.539Z,986
2018-08-18T05:25:14.946Z,986
2018-08-18T05:26:16.171Z,986
2018-08-18T05:27:18.170Z,986
2018-08-18T05:28:20.243Z,986
2018-08-18T05:29:21.537Z,985.9
2018-08-18T05:30:25.265Z,986
2018-08-18T05:31:26.522Z,986
2018-08-18T05:32:27.809Z,986
2018-08-18T05:33:29.118Z,986
2018-08-18T05:34:30.431Z,986
2018-08-18T05:35:31.659Z,986
2018-08-18T05:36:32.923Z,986
2018-08-18T05:37:34.138Z,985.8
2018-08-18T05:38:35.459Z,986
2018-08-18T05:39:36.711Z,986
2018-08-18T05:40:37.930Z,986
2018-08-18T05:41:39.182Z,986
2018-08-18T05:42:40.505Z,986.1
2018-08-18T05:43:41.961Z,986.1
2018-08-18T05:44:43.286Z,986.1
2018-08-18T05:45:44.498Z,986.1
2018-08-18T05:46:45.734Z,986.1
2018-08-18T05:47:47.248Z,986.1
2018-08-18T05:48:57.949Z,986.2
2018-08-18T05:50:00.142Z,986.1
2018-08-18T05:51:01.512Z,986.1
2018-08-18T05:52:03.239Z,986.1
2018-08-18T05:53:04.702Z,986.1
2018-08-18T05:54:06.010Z,986.1
2018-08-18T05:55:07.264Z,986.1
2018-08-18T05:56:08.555Z,986.1
2018-08-18T05:57:09.918Z,986.2
2018-08-18T05:58:15.074Z,986.2
2018-08-18T05:59:16.381Z,986.3
2018-08-18T06:00:17.611Z,986.5
2018-08-18T06:01:19.649Z,986.4
2018-08-18T06:02:21.179Z,986.6
2018-08-18T06:03:22.428Z,986.7
2018-08-18T06:04:23.727Z,986.6
2018-08-18T06:05:25.366Z,986.6
2018-08-18T06:06:26.649Z,986.6
2018-08-18T06:07:27.960Z,986.5
2018-08-18T06:08:29.250Z,986.5
2018-08-18T06:09:30.625Z,986.6
2018-08-18T06:10:31.897Z,986.3
2018-08-18T06:11:33.155Z,986.5
2018-08-18T06:12:34.388Z,986.4
2018-08-18T06:13:35.627Z,986.5
2018-08-18T06:14:36.896Z,986.4
2018-08-18T06:15:38.124Z,986.4
2018-08-18T06:16:39.567Z,986.5
2018-08-18T06:17:43.109Z,986.5
2018-08-18T06:18:44.383Z,986.4
2018-08-18T06:19:45.704Z,986.4
2018-08-18T06:20:47.018Z,986.3
2018-08-18T06:21:50.253Z,986.4
2018-08-18T06:22:54.143Z,986.3
2018-08-18T06:23:58.390Z,986.2
2018-08-18T06:24:59.771Z,986.5
2018-08-18T06:26:03.173Z,986.5
2018-08-18T06:27:04.390Z,986.5
2018-08-18T06:28:06.577Z,986.6
2018-08-18T06:29:07.802Z,986.6
2018-08-18T06:30:09.132Z,986.7
2018-08-18T06:31:10.435Z,986.3
2018-08-18T06:32:11.850Z,986.4
2018-08-18T06:33:13.247Z,986.6
2018-08-18T06:34:14.697Z,986.9
2018-08-18T06:35:15.966Z,986.9
2018-08-18T06:36:17.279Z,987
2018-08-18T06:37:18.496Z,987
2018-08-18T06:38:19.824Z,986.9
2018-08-18T06:39:23.252Z,987.1
2018-08-18T06:40:24.680Z,987.2
2018-08-18T06:41:25.960Z,987.2
2018-08-18T06:42:27.167Z,987.2
2018-08-18T06:43:31.324Z,986.8
2018-08-18T06:44:32.842Z,986.9
2018-08-18T06:45:34.312Z,987.2
2018-08-18T06:46:35.545Z,987.3
2018-08-18T06:47:39.365Z,987.2
2018-08-18T06:48:46.210Z,987.2
2018-08-18T06:49:47.419Z,986.6
2018-08-18T06:50:48.701Z,986.4
2018-08-18T06:51:49.960Z,986.9
2018-08-18T06:52:51.259Z,987.2
2018-08-18T06:53:52.541Z,987.3
2018-08-18T06:54:53.960Z,987.3
2018-08-18T06:55:55.355Z,987.3
2018-08-18T06:56:56.669Z,987.3
2018-08-18T06:57:57.848Z,987.3
2018-08-18T06:58:59.127Z,987.2
2018-08-18T07:00:00.424Z,987.1
2018-08-18T07:01:02.509Z,986.9
2018-08-18T07:02:04.036Z,987.2
2018-08-18T07:03:05.262Z,987.2
2018-08-18T07:04:06.488Z,986.9
2018-08-18T07:05:07.751Z,986.8
2018-08-18T07:06:09.209Z,987
2018-08-18T07:07:10.593Z,987.1
2018-08-18T07:08:11.851Z,987.3
2018-08-18T07:09:13.254Z,987.1
2018-08-18T07:10:14.477Z,987.1
2018-08-18T07:11:15.907Z,987
2018-08-18T07:12:17.175Z,987
2018-08-18T07:13:20.690Z,987.1
2018-08-18T07:14:22.016Z,987.1
2018-08-18T07:15:23.295Z,987.3
2018-08-18T07:16:24.630Z,986.9
2018-08-18T07:17:28.322Z,986.9
2018-08-18T07:18:29.532Z,987.1
2018-08-18T07:19:30.865Z,987.4
2018-08-18T07:20:32.082Z,987.1
2018-08-18T07:21:33.447Z,986.9
2018-08-18T07:22:34.746Z,987
2018-08-18T07:23:35.979Z,987.1
2018-08-18T07:24:37.194Z,987.1
2018-08-18T07:25:38.416Z,987
2018-08-18T07:26:40.234Z,987
2018-08-18T07:27:42.683Z,987.2
2018-08-18T07:28:43.966Z,986.9
2018-08-18T07:29:45.127Z,987.3
2018-08-18T07:30:46.394Z,987.5
2018-08-18T07:31:47.757Z,987.2
2018-08-18T07:32:49.050Z,987.2
2018-08-18T07:33:50.694Z,987.3
2018-08-18T07:34:52.145Z,987.3
2018-08-18T07:35:53.348Z,987.1
2018-08-18T07:36:57.879Z,987.3
2018-08-18T07:38:02.438Z,987.1
2018-08-18T07:39:03.768Z,987.3
2018-08-18T07:40:05.106Z,986.7
2018-08-18T07:41:06.793Z,986.7
2018-08-18T07:42:10.435Z,986.8
2018-08-18T07:43:14.046Z,986.8
2018-08-18T07:44:15.330Z,987.3
2018-08-18T07:45:17.034Z,987.2
2018-08-18T07:46:19.129Z,987.5
2018-08-18T07:47:22.589Z,987.4
2018-08-18T07:48:23.871Z,987.2
2018-08-18T07:49:25.320Z,987.4
2018-08-18T07:50:26.633Z,987.6
2018-08-18T07:51:30.392Z,987.4
2018-08-18T07:52:39.767Z,987.9
2018-08-18T07:53:43.244Z,987.4
2018-08-18T07:54:44.509Z,987.7
2018-08-18T07:55:45.907Z,987.3
2018-08-18T07:56:47.224Z,987.8
2018-08-18T07:57:48.813Z,988.5
2018-08-18T07:58:50.098Z,988
2018-08-18T07:59:51.642Z,988.4
2018-08-18T08:00:57.049Z,988.1
2018-08-18T08:01:58.288Z,987.4
2018-08-18T08:03:00.090Z,987.5
2018-08-18T08:04:13.596Z,988.4
2018-08-18T08:05:14.859Z,987.3
2018-08-18T08:06:16.404Z,987.7
2018-08-18T08:07:22.744Z,987.9
2018-08-18T08:08:24.016Z,987.1
2018-08-18T08:09:28.037Z,987.1
2018-08-18T08:10:29.334Z,987.2
2018-08-18T08:11:30.658Z,986.8
2018-08-18T08:12:34.695Z,987.2
2018-08-18T08:13:37.396Z,986.8
2018-08-18T08:14:38.650Z,987.8
2018-08-18T08:15:40.380Z,987.3
2018-08-18T08:16:41.875Z,987.3
2018-08-18T08:17:51.241Z,986.8
2018-08-18T08:18:55.295Z,986.9
2018-08-18T08:19:56.937Z,986.9
2018-08-18T08:20:58.304Z,987.3
2018-08-18T08:21:59.633Z,987.2
2018-08-18T08:23:01.135Z,988.3
2018-08-18T08:24:06.544Z,987.1
2018-08-18T08:25:07.989Z,987.4
2018-08-18T08:26:09.426Z,987.5
2018-08-18T08:27:11.130Z,987.8
2018-08-18T08:28:12.404Z,987.6
2018-08-18T08:29:21.190Z,987.2
2018-08-18T08:30:22.965Z,986.9
2018-08-18T08:31:32.656Z,986.7
2018-08-18T08:32:39.096Z,986.6
2018-08-18T08:33:40.535Z,986.6
2018-08-18T08:34:45.264Z,986.9
2018-08-18T08:35:48.736Z,986.9
2018-08-18T08:36:50.124Z,987.3
2018-08-18T08:37:51.371Z,987.6
2018-08-18T08:38:52.847Z,987.4
2018-08-18T08:39:54.846Z,987
2018-08-18T08:40:56.100Z,987.2
2018-08-18T08:41:57.386Z,987.1
2018-08-18T08:42:58.696Z,987
2018-08-18T08:44:03.208Z,987.4
2018-08-18T08:45:04.609Z,986.6
2018-08-18T08:46:06.160Z,986.3
2018-08-18T08:47:09.581Z,986.2
2018-08-18T08:48:13.163Z,986.7
2018-08-18T08:49:17.170Z,986.6
2018-08-18T08:50:18.551Z,986.7
2018-08-18T08:51:19.895Z,986.6
2018-08-18T08:52:24.434Z,986.5
2018-08-18T08:53:27.365Z,986.5
2018-08-18T08:54:29.892Z,987.2
2018-08-18T08:55:31.398Z,987.3
2018-08-18T08:56:32.679Z,987.5
2018-08-18T08:57:35.536Z,986.8
2018-08-18T08:58:38.018Z,986.4
2018-08-18T08:59:39.391Z,987
2018-08-18T09:00:46.297Z,987.2
2018-08-18T09:01:50.304Z,987.2
2018-08-18T09:02:55.233Z,986.8
2018-08-18T09:04:00.463Z,986.6
2018-08-18T09:05:05.257Z,986.2
2018-08-18T09:06:06.603Z,986.6
2018-08-18T09:07:07.869Z,986.2
2018-08-18T09:08:09.168Z,986.4
2018-08-18T09:09:17.496Z,987.5
2018-08-18T09:10:19.612Z,987
2018-08-18T09:11:20.909Z,986.7
2018-08-18T09:13:31.268Z,986.2
2018-08-18T09:14:32.583Z,986.7
2018-08-18T09:15:33.992Z,986.2
2018-08-18T09:16:35.277Z,986.4
2018-08-18T09:17:37.517Z,986.3
2018-08-18T09:18:39.251Z,986.3
2018-08-18T09:19:41.413Z,986
2018-08-18T09:20:42.645Z,986
2018-08-18T09:21:47.122Z,986.8
2018-08-18T09:22:48.339Z,986.7
2018-08-18T09:23:51.651Z,986.6
2018-08-18T09:24:53.021Z,986.3
2018-08-18T09:25:54.406Z,986.8
2018-08-18T09:26:55.792Z,986.4
2018-08-18T09:27:57.061Z,985.8
2018-08-18T09:28:58.697Z,986.3
2018-08-18T09:30:00.027Z,986.1
2018-08-18T09:31:02.348Z,986.3
2018-08-18T09:32:03.636Z,986.5
2018-08-18T09:33:05.129Z,986.9
2018-08-18T09:34:07.628Z,986.3
2018-08-18T09:35:09.128Z,986.6
2018-08-18T09:36:10.469Z,986.2
2018-08-18T09:37:12.136Z,986.2
2018-08-18T09:38:13.410Z,986
2018-08-18T09:39:14.671Z,986.2
2018-08-18T09:40:15.899Z,986
2018-08-18T09:41:30.412Z,985.7
2018-08-18T09:42:34.162Z,986.2
2018-08-18T09:43:35.539Z,986.3
2018-08-18T09:44:37.196Z,986.2
2018-08-18T09:45:38.583Z,985.7
2018-08-18T09:46:41.866Z,986.1
2018-08-18T09:47:43.290Z,986.2
2018-08-18T09:48:44.826Z,986.1
2018-08-18T09:49:46.386Z,986.2
2018-08-18T09:50:49.868Z,986.2
2018-08-18T09:51:51.848Z,985.7
2018-08-18T09:52:53.270Z,985.9
2018-08-18T09:53:54.611Z,986
2018-08-18T09:54:55.904Z,985.8
2018-08-18T09:55:57.140Z,985.8
2018-08-18T09:57:01.406Z,985.8
2018-08-18T09:58:03.562Z,985.6
2018-08-18T09:59:05.194Z,985.8
2018-08-18T10:00:08.546Z,986.1
2018-08-18T10:01:09.834Z,985.9
2018-08-18T10:02:14.222Z,985.9
2018-08-18T10:03:15.527Z,985.6
2018-08-18T10:04:16.790Z,986.2
2018-08-18T10:05:20.418Z,985.8
2018-08-18T10:06:22.078Z,985.8
2018-08-18T10:07:23.279Z,985.7
2018-08-18T10:08:24.682Z,985.6
2018-08-18T10:09:27.397Z,985.7
2018-08-18T10:10:29.216Z,985.8
2018-08-18T10:11:30.558Z,985.7
2018-08-18T10:12:32.474Z,985.7
2018-08-18T10:13:49.683Z,985.7
2018-08-18T10:15:01.511Z,985.8
2018-08-18T10:16:06.778Z,985.9
2018-08-18T10:17:08.087Z,985.8
2018-08-18T10:18:12.301Z,985.5
2018-08-18T10:19:13.797Z,985.7
2018-08-18T10:20:17.826Z,985.6
2018-08-18T10:21:19.222Z,985.5
2018-08-18T10:22:30.294Z,985.5
2018-08-18T10:23:33.362Z,985.6
2018-08-18T10:24:35.355Z,985.7
2018-08-18T10:25:36.593Z,985.6
2018-08-18T10:26:38.589Z,985.6
2018-08-18T10:27:41.427Z,985.5
2018-08-18T10:28:42.752Z,985.5
2018-08-18T10:29:48.231Z,985.5
2018-08-18T10:30:49.556Z,985.4
2018-08-18T10:31:58.280Z,985.5
2018-08-18T10:32:59.575Z,985.5
2018-08-18T10:34:01.470Z,985.5
2018-08-18T10:35:03.019Z,985.5
2018-08-18T10:36:04.442Z,985.4
2018-08-18T10:37:10.633Z,985.4
2018-08-18T10:38:14.191Z,985.2
2018-08-18T10:39:15.478Z,985.3
2018-08-18T10:40:19.211Z,985.3
2018-08-18T10:41:20.810Z,985.3
2018-08-18T10:42:30.238Z,985.3
2018-08-18T10:43:31.554Z,985.3
2018-08-18T10:44:33.132Z,985.3
2018-08-18T10:45:34.689Z,985.3
2018-08-18T10:46:36.071Z,985.4
2018-08-18T10:47:46.769Z,985.3
2018-08-18T10:48:55.564Z,985.3
2018-08-18T10:49:58.803Z,985.3
2018-08-18T10:51:00.265Z,985.3
2018-08-18T10:52:04.963Z,985.3
2018-08-18T10:53:11.089Z,985.3
2018-08-18T10:54:12.437Z,985.3
2018-08-18T10:55:13.872Z,985.4
2018-08-18T10:56:15.229Z,985.4
2018-08-18T10:57:16.505Z,985.3
2018-08-18T10:58:17.880Z,985.2
2018-08-18T10:59:19.377Z,985.3
2018-08-18T11:00:24.268Z,985.3
2018-08-18T11:01:28.794Z,985.2
2018-08-18T11:02:30.152Z,985.4
2018-08-18T11:03:31.967Z,985.3
2018-08-18T11:04:33.881Z,985.2
2018-08-18T11:05:37.899Z,985.3
2018-08-18T11:06:42.844Z,985.3
2018-08-18T11:07:46.931Z,985.3
2018-08-18T11:08:48.150Z,985.3
2018-08-18T11:09:49.647Z,985.3
2018-08-18T11:10:52.144Z,985.3
2018-08-18T11:11:54.925Z,985.3
2018-08-18T11:12:56.077Z,985.4
2018-08-18T11:14:07.658Z,985.2
2018-08-18T11:15:09.976Z,985.3
2018-08-18T11:16:11.394Z,985.3
2018-08-18T11:17:18.964Z,985.2
2018-08-18T11:18:20.218Z,985.1
2018-08-18T11:19:21.526Z,985.3
2018-08-18T11:20:23.134Z,985.3
2018-08-18T11:21:26.043Z,985.3
2018-08-18T11:22:27.356Z,985.4
2018-08-18T11:23:28.586Z,985.3
2018-08-18T11:24:29.997Z,985.3
2018-08-18T11:25:34.631Z,985.3
2018-08-18T11:26:40.064Z,985.3
2018-08-18T11:27:41.332Z,985.4
2018-08-18T11:28:42.747Z,985.4
2018-08-18T11:29:47.153Z,985.2
2018-08-18T11:30:51.516Z,985.4
2018-08-18T11:31:52.945Z,985.3
2018-08-18T11:32:54.689Z,985.1
2018-08-18T11:34:00.620Z,985.2
2018-08-18T11:35:04.318Z,985.2
2018-08-18T11:36:05.797Z,984.9
2018-08-18T11:37:07.304Z,985.1
2018-08-18T11:38:08.622Z,985.1
2018-08-18T11:39:13.764Z,985.3
2018-08-18T11:40:15.050Z,985.3
2018-08-18T11:41:19.149Z,984.9
2018-08-18T11:42:20.521Z,984.9
2018-08-18T11:43:23.264Z,985.2
2018-08-18T11:44:25.698Z,985.3
2018-08-18T11:45:27.075Z,985.1
2018-08-18T11:46:28.342Z,985.3
2018-08-18T11:47:30.733Z,985.2
2018-08-18T11:48:32.136Z,985.3
2018-08-18T11:49:36.062Z,985.3
2018-08-18T11:50:38.027Z,985.3
2018-08-18T11:51:41.686Z,985
2018-08-18T11:52:43.783Z,985.3
2018-08-18T11:53:48.141Z,985.3
2018-08-18T11:54:49.380Z,985.2
2018-08-18T11:55:50.632Z,985.2
2018-08-18T11:56:52.300Z,985.2
2018-08-18T11:57:53.538Z,985.2
2018-08-18T11:58:58.623Z,985.2
2018-08-18T12:00:00.036Z,985.2
2018-08-18T12:01:01.353Z,985.2
2018-08-18T12:02:03.004Z,985.2
2018-08-18T12:03:04.653Z,985.2
2018-08-18T12:04:06.056Z,985.2
2018-08-18T12:05:07.394Z,985.2
2018-08-18T12:06:08.665Z,985.2
2018-08-18T12:07:13.549Z,985.2
2018-08-18T12:08:14.922Z,985.2
2018-08-18T12:09:16.780Z,985.2
2018-08-18T12:10:21.030Z,985.2
2018-08-18T12:11:36.766Z,985.2
2018-08-18T12:12:37.983Z,985.1
2018-08-18T12:13:44.529Z,985.1
2018-08-18T12:14:46.147Z,985.1
2018-08-18T12:15:48.074Z,985.1
2018-08-18T12:16:49.369Z,985.1
2018-08-18T12:17:59.298Z,985.1
2018-08-18T12:19:00.584Z,985.1
2018-08-18T12:20:04.770Z,985
2018-08-18T12:21:08.184Z,984.9
2018-08-18T12:22:09.535Z,984.8
2018-08-18T12:23:10.872Z,984.9
2018-08-18T12:24:17.332Z,984.8
2018-08-18T12:25:18.846Z,984.8
2018-08-18T12:26:23.273Z,984.9
2018-08-18T12:27:33.736Z,984.9
2018-08-18T12:28:34.999Z,984.8
2018-08-18T12:29:40.397Z,985
2018-08-18T12:30:42.071Z,985
2018-08-18T12:31:45.660Z,985
2018-08-18T12:32:47.248Z,984.9
2018-08-18T12:33:48.551Z,984.9
2018-08-18T12:34:49.926Z,984.8
2018-08-18T12:35:51.176Z,984.9
2018-08-18T12:36:53.595Z,984.9
2018-08-18T12:37:54.858Z,984.9
2018-08-18T12:38:56.289Z,984.8
2018-08-18T12:39:57.660Z,984.8
2018-08-18T12:40:59.053Z,984.8
2018-08-18T12:42:03.294Z,984.7
2018-08-18T12:43:04.576Z,984.9
2018-08-18T12:44:05.990Z,984.9
2018-08-18T12:45:07.276Z,984.8
2018-08-18T12:46:14.407Z,984.8
2018-08-18T12:47:15.766Z,984.8
2018-08-18T12:48:21.574Z,984.7
2018-08-18T12:49:25.229Z,984.7
2018-08-18T12:50:29.447Z,984.7
2018-08-18T12:51:30.718Z,984.7
2018-08-18T12:52:32.266Z,984.5
2018-08-18T12:53:33.500Z,984.7
2018-08-18T12:54:36.118Z,984.7
2018-08-18T12:55:40.137Z,984.6
2018-08-18T12:56:45.108Z,984.6
2018-08-18T12:57:49.655Z,984.6
2018-08-18T12:58:54.388Z,984.5
2018-08-18T12:59:56.906Z,984.6
2018-08-18T13:00:58.577Z,984.5
2018-08-18T13:01:59.924Z,984.6
2018-08-18T13:03:01.342Z,984.6
2018-08-18T13:04:02.705Z,984.5
2018-08-18T13:05:03.972Z,984.6
2018-08-18T13:06:06.659Z,984.6
2018-08-18T13:07:09.208Z,984.5
2018-08-18T13:08:10.689Z,984.5
2018-08-18T13:09:14.399Z,984.5
2018-08-18T13:10:15.668Z,984.5
2018-08-18T13:11:17.056Z,984.2
2018-08-18T13:12:18.371Z,984.4
2018-08-18T13:13:22.535Z,984.4
2018-08-18T13:14:28.883Z,984.4
2018-08-18T13:15:34.516Z,984.4
2018-08-18T13:16:35.760Z,984.4
2018-08-18T13:17:43.131Z,984.4
2018-08-18T13:18:45.077Z,984.3
2018-08-18T13:19:47.009Z,984.3
2018-08-18T13:20:50.636Z,984.3
2018-08-18T13:21:51.823Z,984.4
2018-08-18T13:22:53.250Z,984.3
2018-08-18T13:24:00.500Z,984.4
2018-08-18T13:25:04.319Z,984.4